sensor_id;sensor_type;location;lat;lon;timestamp;temperature;humidity
71754;DHT22;59593;51.716;7.016;2023-03-01T00:01:04;-0.50;99.90
71754;DHT22;59593;51.716;7.016;2023-03-01T00:03:30;-0.50;99.90
71754;DHT22;59593;51.716;7.016;2023-03-01T00:05:56;-0.50;99.90
71754;DHT22;59593;51.716;7.016;2023-03-01T00:08:25;-0.60;99.90
71754;DHT22;59593;51.716;7.016;2023-03-01T00:11:22;-0.50;99.90
71754;DHT22;59593;51.716;7.016;2023-03-01T00:13:47;-0.50;99.90
71754;DHT22;59593;51.716;7.016;2023-03-01T00:16:23;-0.60;99.90
71754;DHT22;59593;51.716;7.016;2023-03-01T00:18:49;-0.70;99.90
71754;DHT22;59593;51.716;7.016;2023-03-01T00:21:16;-0.70;99.90
71754;DHT22;59593;51.716;7.016;2023-03-01T00:23:42;-0.70;99.90
71754;DHT22;59593;51.716;7.016;2023-03-01T00:26:10;-0.70;99.90
71754;DHT22;59593;51.716;7.016;2023-03-01T00:28:36;-0.70;99.90
71754;DHT22;59593;51.716;7.016;2023-03-01T00:31:10;-0.80;99.90
71754;DHT22;59593;51.716;7.016;2023-03-01T00:33:36;-0.80;99.90
71754;DHT22;59593;51.716;7.016;2023-03-01T00:36:03;-0.60;99.90
71754;DHT22;59593;51.716;7.016;2023-03-01T00:38:29;-0.60;99.90
71754;DHT22;59593;51.716;7.016;2023-03-01T00:40:54;-0.60;99.90
71754;DHT22;59593;51.716;7.016;2023-03-01T00:43:23;-0.70;99.90
71754;DHT22;59593;51.716;7.016;2023-03-01T00:45:49;-0.80;99.90
71754;DHT22;59593;51.716;7.016;2023-03-01T00:48:17;-0.80;99.90
71754;DHT22;59593;51.716;7.016;2023-03-01T00:50:43;-0.80;99.90
71754;DHT22;59593;51.716;7.016;2023-03-01T00:53:08;-0.90;99.90
71754;DHT22;59593;51.716;7.016;2023-03-01T00:55:36;-0.90;99.90
71754;DHT22;59593;51.716;7.016;2023-03-01T00:58:01;-0.90;99.90
71754;DHT22;59593;51.716;7.016;2023-03-01T01:00:27;-0.90;99.90
71754;DHT22;59593;51.716;7.016;2023-03-01T01:02:53;-1.00;99.90
71754;DHT22;59593;51.716;7.016;2023-03-01T01:05:19;-1.00;99.90
71754;DHT22;59593;51.716;7.016;2023-03-01T01:07:46;-1.00;99.90
71754;DHT22;59593;51.716;7.016;2023-03-01T01:10:12;-1.00;99.90
71754;DHT22;59593;51.716;7.016;2023-03-01T01:12:45;-1.00;99.90
71754;DHT22;59593;51.716;7.016;2023-03-01T01:15:12;-0.90;99.90
71754;DHT22;59593;51.716;7.016;2023-03-01T01:17:40;-1.00;99.90
71754;DHT22;59593;51.716;7.016;2023-03-01T01:20:06;-1.10;99.90
71754;DHT22;59593;51.716;7.016;2023-03-01T01:22:32;-1.10;99.90
71754;DHT22;59593;51.716;7.016;2023-03-01T01:24:58;-1.10;99.90
71754;DHT22;59593;51.716;7.016;2023-03-01T01:27:24;-1.10;99.90
71754;DHT22;59593;51.716;7.016;2023-03-01T01:29:49;-1.10;99.90
71754;DHT22;59593;51.716;7.016;2023-03-01T01:32:15;-1.20;99.90
71754;DHT22;59593;51.716;7.016;2023-03-01T01:34:40;-1.20;99.90
71754;DHT22;59593;51.716;7.016;2023-03-01T01:37:06;-1.20;99.90
71754;DHT22;59593;51.716;7.016;2023-03-01T01:39:34;-1.20;99.90
71754;DHT22;59593;51.716;7.016;2023-03-01T01:42:00;-1.20;99.90
71754;DHT22;59593;51.716;7.016;2023-03-01T01:44:28;-1.30;99.90
71754;DHT22;59593;51.716;7.016;2023-03-01T01:47:04;-1.30;99.90
71754;DHT22;59593;51.716;7.016;2023-03-01T01:49:41;-1.20;99.90
71754;DHT22;59593;51.716;7.016;2023-03-01T01:52:23;-1.20;99.90
71754;DHT22;59593;51.716;7.016;2023-03-01T01:54:56;-1.20;99.90
71754;DHT22;59593;51.716;7.016;2023-03-01T01:57:32;-1.30;99.90
71754;DHT22;59593;51.716;7.016;2023-03-01T02:00:04;-1.40;99.90
71754;DHT22;59593;51.716;7.016;2023-03-01T02:02:33;-1.50;99.90
71754;DHT22;59593;51.716;7.016;2023-03-01T02:05:05;-1.60;99.90
71754;DHT22;59593;51.716;7.016;2023-03-01T02:07:37;-1.60;99.90
71754;DHT22;59593;51.716;7.016;2023-03-01T02:10:04;-1.70;99.90
71754;DHT22;59593;51.716;7.016;2023-03-01T02:12:30;-1.70;99.90
71754;DHT22;59593;51.716;7.016;2023-03-01T02:14:56;-1.70;99.90
71754;DHT22;59593;51.716;7.016;2023-03-01T02:17:22;-1.60;99.90
71754;DHT22;59593;51.716;7.016;2023-03-01T02:20:06;-1.60;99.90
71754;DHT22;59593;51.716;7.016;2023-03-01T02:22:37;-1.60;99.90
71754;DHT22;59593;51.716;7.016;2023-03-01T02:27:49;-1.60;99.90
71754;DHT22;59593;51.716;7.016;2023-03-01T02:30:19;-1.50;99.90
71754;DHT22;59593;51.716;7.016;2023-03-01T02:32:45;-1.50;99.90
71754;DHT22;59593;51.716;7.016;2023-03-01T02:35:14;-1.60;99.90
71754;DHT22;59593;51.716;7.016;2023-03-01T02:37:41;-1.60;99.90
71754;DHT22;59593;51.716;7.016;2023-03-01T02:40:11;-1.60;99.90
71754;DHT22;59593;51.716;7.016;2023-03-01T02:42:51;-1.60;99.90
71754;DHT22;59593;51.716;7.016;2023-03-01T02:45:17;-1.60;99.90
71754;DHT22;59593;51.716;7.016;2023-03-01T02:47:43;-1.70;99.90
71754;DHT22;59593;51.716;7.016;2023-03-01T02:50:52;-1.70;99.90
71754;DHT22;59593;51.716;7.016;2023-03-01T02:53:38;-1.70;99.90
71754;DHT22;59593;51.716;7.016;2023-03-01T02:56:06;-1.80;99.90
71754;DHT22;59593;51.716;7.016;2023-03-01T02:58:41;-1.80;99.90
71754;DHT22;59593;51.716;7.016;2023-03-01T03:01:11;-1.80;99.90
71754;DHT22;59593;51.716;7.016;2023-03-01T03:03:39;-1.80;99.90
71754;DHT22;59593;51.716;7.016;2023-03-01T03:06:04;-1.80;99.90
71754;DHT22;59593;51.716;7.016;2023-03-01T03:08:30;-1.80;99.90
71754;DHT22;59593;51.716;7.016;2023-03-01T03:10:55;-1.80;99.90
71754;DHT22;59593;51.716;7.016;2023-03-01T03:13:21;-1.80;99.90
71754;DHT22;59593;51.716;7.016;2023-03-01T03:15:47;-1.80;99.90
71754;DHT22;59593;51.716;7.016;2023-03-01T03:18:16;-1.80;99.90
71754;DHT22;59593;51.716;7.016;2023-03-01T03:20:42;-1.80;99.90
71754;DHT22;59593;51.716;7.016;2023-03-01T03:23:08;-1.80;99.90
71754;DHT22;59593;51.716;7.016;2023-03-01T03:25:34;-1.80;99.90
71754;DHT22;59593;51.716;7.016;2023-03-01T03:28:03;-1.80;99.90
71754;DHT22;59593;51.716;7.016;2023-03-01T03:30:36;-1.90;99.90
71754;DHT22;59593;51.716;7.016;2023-03-01T03:33:02;-1.90;99.90
71754;DHT22;59593;51.716;7.016;2023-03-01T03:35:31;-1.90;99.90
71754;DHT22;59593;51.716;7.016;2023-03-01T03:37:58;-1.90;99.90
71754;DHT22;59593;51.716;7.016;2023-03-01T03:40:33;-1.80;99.90
71754;DHT22;59593;51.716;7.016;2023-03-01T03:42:59;-1.80;99.90
71754;DHT22;59593;51.716;7.016;2023-03-01T03:45:25;-1.90;99.90
71754;DHT22;59593;51.716;7.016;2023-03-01T03:47:50;-1.90;99.90
71754;DHT22;59593;51.716;7.016;2023-03-01T03:50:17;-1.90;99.90
71754;DHT22;59593;51.716;7.016;2023-03-01T03:52:43;-2.00;99.90
71754;DHT22;59593;51.716;7.016;2023-03-01T03:55:10;-2.00;99.90
71754;DHT22;59593;51.716;7.016;2023-03-01T03:57:41;-2.00;99.90
71754;DHT22;59593;51.716;7.016;2023-03-01T04:00:09;-2.00;99.90
71754;DHT22;59593;51.716;7.016;2023-03-01T04:02:47;-2.00;99.90
71754;DHT22;59593;51.716;7.016;2023-03-01T04:05:15;-2.00;99.90
71754;DHT22;59593;51.716;7.016;2023-03-01T04:07:41;-2.00;99.90
71754;DHT22;59593;51.716;7.016;2023-03-01T04:10:10;-2.00;99.90
71754;DHT22;59593;51.716;7.016;2023-03-01T04:12:36;-2.00;99.90
71754;DHT22;59593;51.716;7.016;2023-03-01T04:15:03;-1.90;99.90
71754;DHT22;59593;51.716;7.016;2023-03-01T04:17:45;-2.00;99.90
71754;DHT22;59593;51.716;7.016;2023-03-01T04:20:13;-2.00;99.90
71754;DHT22;59593;51.716;7.016;2023-03-01T04:22:39;-2.00;99.90
71754;DHT22;59593;51.716;7.016;2023-03-01T04:25:05;-2.00;99.90
71754;DHT22;59593;51.716;7.016;2023-03-01T04:27:33;-1.90;99.90
71754;DHT22;59593;51.716;7.016;2023-03-01T04:30:00;-1.90;99.90
71754;DHT22;59593;51.716;7.016;2023-03-01T04:32:25;-1.90;99.90
71754;DHT22;59593;51.716;7.016;2023-03-01T04:34:51;-2.00;99.90
71754;DHT22;59593;51.716;7.016;2023-03-01T04:37:16;-1.90;99.90
71754;DHT22;59593;51.716;7.016;2023-03-01T04:39:42;-1.90;99.90
71754;DHT22;59593;51.716;7.016;2023-03-01T04:42:17;-1.90;99.90
71754;DHT22;59593;51.716;7.016;2023-03-01T04:44:43;-1.90;99.90
71754;DHT22;59593;51.716;7.016;2023-03-01T04:47:09;-1.90;99.90
71754;DHT22;59593;51.716;7.016;2023-03-01T04:49:35;-1.90;99.90
71754;DHT22;59593;51.716;7.016;2023-03-01T04:52:01;-1.90;99.90
71754;DHT22;59593;51.716;7.016;2023-03-01T04:54:33;-2.00;99.90
71754;DHT22;59593;51.716;7.016;2023-03-01T04:57:00;-2.10;99.90
71754;DHT22;59593;51.716;7.016;2023-03-01T04:59:27;-2.20;99.90
71754;DHT22;59593;51.716;7.016;2023-03-01T05:01:53;-2.20;99.90
71754;DHT22;59593;51.716;7.016;2023-03-01T05:04:23;-2.10;99.90
71754;DHT22;59593;51.716;7.016;2023-03-01T05:06:49;-2.10;99.90
71754;DHT22;59593;51.716;7.016;2023-03-01T05:09:15;-2.10;99.90
71754;DHT22;59593;51.716;7.016;2023-03-01T05:11:41;-2.20;99.90
71754;DHT22;59593;51.716;7.016;2023-03-01T05:14:07;-2.30;99.90
71754;DHT22;59593;51.716;7.016;2023-03-01T05:16:33;-2.30;99.90
71754;DHT22;59593;51.716;7.016;2023-03-01T05:18:59;-2.30;99.90
71754;DHT22;59593;51.716;7.016;2023-03-01T05:21:25;-2.20;99.90
71754;DHT22;59593;51.716;7.016;2023-03-01T05:23:51;-2.20;99.90
71754;DHT22;59593;51.716;7.016;2023-03-01T05:26:19;-2.30;99.90
71754;DHT22;59593;51.716;7.016;2023-03-01T05:28:47;-2.20;99.90
71754;DHT22;59593;51.716;7.016;2023-03-01T05:31:13;-2.30;99.90
71754;DHT22;59593;51.716;7.016;2023-03-01T05:33:40;-2.30;99.90
71754;DHT22;59593;51.716;7.016;2023-03-01T05:36:07;-2.30;99.90
71754;DHT22;59593;51.716;7.016;2023-03-01T05:38:33;-2.40;99.90
71754;DHT22;59593;51.716;7.016;2023-03-01T05:40:59;-2.40;99.90
71754;DHT22;59593;51.716;7.016;2023-03-01T05:43:25;-2.40;99.90
71754;DHT22;59593;51.716;7.016;2023-03-01T05:45:50;-2.40;99.90
71754;DHT22;59593;51.716;7.016;2023-03-01T05:48:16;-2.40;99.90
71754;DHT22;59593;51.716;7.016;2023-03-01T05:50:45;-2.50;99.90
71754;DHT22;59593;51.716;7.016;2023-03-01T05:53:17;-2.50;99.90
71754;DHT22;59593;51.716;7.016;2023-03-01T05:55:44;-2.60;99.90
71754;DHT22;59593;51.716;7.016;2023-03-01T05:58:13;-2.60;99.90
71754;DHT22;59593;51.716;7.016;2023-03-01T06:00:39;-2.50;99.90
71754;DHT22;59593;51.716;7.016;2023-03-01T06:03:09;-2.60;99.90
71754;DHT22;59593;51.716;7.016;2023-03-01T06:05:35;-2.60;99.90
71754;DHT22;59593;51.716;7.016;2023-03-01T06:08:02;-2.70;99.90
71754;DHT22;59593;51.716;7.016;2023-03-01T06:10:28;-2.70;99.90
71754;DHT22;59593;51.716;7.016;2023-03-01T06:12:54;-2.70;99.90
71754;DHT22;59593;51.716;7.016;2023-03-01T06:15:20;-2.60;99.90
71754;DHT22;59593;51.716;7.016;2023-03-01T06:17:48;-2.50;99.90
71754;DHT22;59593;51.716;7.016;2023-03-01T06:20:19;-2.50;99.90
71754;DHT22;59593;51.716;7.016;2023-03-01T06:22:46;-2.50;99.90
71754;DHT22;59593;51.716;7.016;2023-03-01T06:25:14;-2.50;99.90
71754;DHT22;59593;51.716;7.016;2023-03-01T06:27:41;-2.50;99.90
71754;DHT22;59593;51.716;7.016;2023-03-01T06:30:13;-2.40;99.90
71754;DHT22;59593;51.716;7.016;2023-03-01T06:32:40;-2.50;99.90
71754;DHT22;59593;51.716;7.016;2023-03-01T06:35:13;-2.60;99.90
71754;DHT22;59593;51.716;7.016;2023-03-01T06:37:46;-2.70;99.90
71754;DHT22;59593;51.716;7.016;2023-03-01T06:40:12;-2.70;99.90
71754;DHT22;59593;51.716;7.016;2023-03-01T06:42:40;-2.70;99.90
71754;DHT22;59593;51.716;7.016;2023-03-01T06:45:07;-2.60;99.90
71754;DHT22;59593;51.716;7.016;2023-03-01T06:47:34;-2.60;99.90
71754;DHT22;59593;51.716;7.016;2023-03-01T06:50:01;-2.60;99.90
71754;DHT22;59593;51.716;7.016;2023-03-01T06:52:27;-2.60;99.90
71754;DHT22;59593;51.716;7.016;2023-03-01T06:54:52;-2.60;99.90
71754;DHT22;59593;51.716;7.016;2023-03-01T06:57:18;-2.50;99.90
71754;DHT22;59593;51.716;7.016;2023-03-01T06:59:44;-2.40;99.90
71754;DHT22;59593;51.716;7.016;2023-03-01T07:02:11;-2.40;99.90
71754;DHT22;59593;51.716;7.016;2023-03-01T07:04:37;-2.30;99.90
71754;DHT22;59593;51.716;7.016;2023-03-01T07:07:03;-2.30;99.90
71754;DHT22;59593;51.716;7.016;2023-03-01T07:09:28;-2.20;99.90
71754;DHT22;59593;51.716;7.016;2023-03-01T07:11:54;-2.20;99.90
71754;DHT22;59593;51.716;7.016;2023-03-01T07:14:20;-2.10;99.90
71754;DHT22;59593;51.716;7.016;2023-03-01T07:16:46;-2.10;99.90
71754;DHT22;59593;51.716;7.016;2023-03-01T07:19:11;-2.00;99.90
71754;DHT22;59593;51.716;7.016;2023-03-01T07:21:37;-2.00;99.90
71754;DHT22;59593;51.716;7.016;2023-03-01T07:24:06;-1.90;99.90
71754;DHT22;59593;51.716;7.016;2023-03-01T07:26:31;-1.80;99.90
71754;DHT22;59593;51.716;7.016;2023-03-01T07:28:59;-1.70;99.90
71754;DHT22;59593;51.716;7.016;2023-03-01T07:31:25;-1.60;99.90
71754;DHT22;59593;51.716;7.016;2023-03-01T07:33:53;-1.50;99.90
71754;DHT22;59593;51.716;7.016;2023-03-01T07:36:19;-1.40;99.90
71754;DHT22;59593;51.716;7.016;2023-03-01T07:38:44;-1.30;99.90
71754;DHT22;59593;51.716;7.016;2023-03-01T07:41:10;-1.10;99.90
71754;DHT22;59593;51.716;7.016;2023-03-01T07:43:36;-1.00;99.90
71754;DHT22;59593;51.716;7.016;2023-03-01T07:46:01;-0.90;99.90
71754;DHT22;59593;51.716;7.016;2023-03-01T07:48:28;-0.70;99.90
71754;DHT22;59593;51.716;7.016;2023-03-01T07:50:53;-0.60;99.90
71754;DHT22;59593;51.716;7.016;2023-03-01T07:53:19;-0.40;99.90
71754;DHT22;59593;51.716;7.016;2023-03-01T07:55:44;-0.30;99.90
71754;DHT22;59593;51.716;7.016;2023-03-01T07:58:10;-0.30;99.90
71754;DHT22;59593;51.716;7.016;2023-03-01T08:00:36;-0.20;99.90
71754;DHT22;59593;51.716;7.016;2023-03-01T08:03:02;-0.10;99.90
71754;DHT22;59593;51.716;7.016;2023-03-01T08:05:36;0.00;99.90
71754;DHT22;59593;51.716;7.016;2023-03-01T08:11:24;0.20;99.90
71754;DHT22;59593;51.716;7.016;2023-03-01T08:14:08;0.30;99.90
71754;DHT22;59593;51.716;7.016;2023-03-01T08:17:09;0.40;99.90
71754;DHT22;59593;51.716;7.016;2023-03-01T08:19:45;0.40;99.90
71754;DHT22;59593;51.716;7.016;2023-03-01T08:22:11;0.50;99.90
71754;DHT22;59593;51.716;7.016;2023-03-01T08:24:37;0.60;99.90
71754;DHT22;59593;51.716;7.016;2023-03-01T08:27:03;0.70;99.90
71754;DHT22;59593;51.716;7.016;2023-03-01T08:29:42;0.80;99.90
71754;DHT22;59593;51.716;7.016;2023-03-01T08:32:17;1.00;99.90
71754;DHT22;59593;51.716;7.016;2023-03-01T08:34:46;1.00;99.90
71754;DHT22;59593;51.716;7.016;2023-03-01T08:37:12;1.10;99.90
71754;DHT22;59593;51.716;7.016;2023-03-01T08:39:38;1.20;99.90
71754;DHT22;59593;51.716;7.016;2023-03-01T08:42:07;1.20;99.90
71754;DHT22;59593;51.716;7.016;2023-03-01T08:44:32;1.30;99.90
71754;DHT22;59593;51.716;7.016;2023-03-01T08:46:59;1.40;99.90
71754;DHT22;59593;51.716;7.016;2023-03-01T08:49:28;1.50;99.90
71754;DHT22;59593;51.716;7.016;2023-03-01T08:51:53;1.70;99.90
71754;DHT22;59593;51.716;7.016;2023-03-01T08:54:21;1.70;99.90
71754;DHT22;59593;51.716;7.016;2023-03-01T08:56:47;1.80;99.90
71754;DHT22;59593;51.716;7.016;2023-03-01T08:59:17;1.90;99.90
71754;DHT22;59593;51.716;7.016;2023-03-01T09:01:46;1.90;99.90
71754;DHT22;59593;51.716;7.016;2023-03-01T09:04:12;2.00;99.90
71754;DHT22;59593;51.716;7.016;2023-03-01T09:06:39;2.10;99.90
71754;DHT22;59593;51.716;7.016;2023-03-01T09:09:30;2.20;99.90
71754;DHT22;59593;51.716;7.016;2023-03-01T09:12:20;2.20;99.90
71754;DHT22;59593;51.716;7.016;2023-03-01T09:21:47;2.70;99.90
71754;DHT22;59593;51.716;7.016;2023-03-01T09:24:21;2.90;99.90
71754;DHT22;59593;51.716;7.016;2023-03-01T09:27:05;3.10;99.90
71754;DHT22;59593;51.716;7.016;2023-03-01T09:29:47;3.10;99.90
71754;DHT22;59593;51.716;7.016;2023-03-01T09:38:42;3.40;99.90
71754;DHT22;59593;51.716;7.016;2023-03-01T09:46:15;3.60;99.90
71754;DHT22;59593;51.716;7.016;2023-03-01T09:48:57;3.70;99.90
71754;DHT22;59593;51.716;7.016;2023-03-01T09:51:35;3.70;99.90
71754;DHT22;59593;51.716;7.016;2023-03-01T09:54:02;3.70;99.90
71754;DHT22;59593;51.716;7.016;2023-03-01T09:56:45;3.80;99.90
71754;DHT22;59593;51.716;7.016;2023-03-01T10:02:35;4.00;99.90
71754;DHT22;59593;51.716;7.016;2023-03-01T10:05:21;4.10;99.90
71754;DHT22;59593;51.716;7.016;2023-03-01T10:08:18;4.20;99.90
71754;DHT22;59593;51.716;7.016;2023-03-01T10:10:47;4.30;99.90
71754;DHT22;59593;51.716;7.016;2023-03-01T10:13:25;4.40;99.90
71754;DHT22;59593;51.716;7.016;2023-03-01T10:15:57;4.30;99.90
71754;DHT22;59593;51.716;7.016;2023-03-01T10:18:30;4.30;99.90
71754;DHT22;59593;51.716;7.016;2023-03-01T10:21:01;4.30;99.90
71754;DHT22;59593;51.716;7.016;2023-03-01T10:23:30;4.30;99.90
71754;DHT22;59593;51.716;7.016;2023-03-01T10:26:37;4.40;99.90
71754;DHT22;59593;51.716;7.016;2023-03-01T10:29:06;4.40;99.90
71754;DHT22;59593;51.716;7.016;2023-03-01T10:31:45;4.40;99.90
71754;DHT22;59593;51.716;7.016;2023-03-01T10:36:54;5.30;99.90
71754;DHT22;59593;51.716;7.016;2023-03-01T10:39:23;5.40;99.90
71754;DHT22;59593;51.716;7.016;2023-03-01T10:42:09;5.20;99.90
71754;DHT22;59593;51.716;7.016;2023-03-01T10:44:47;5.50;99.90
71754;DHT22;59593;51.716;7.016;2023-03-01T10:47:30;6.10;99.90
71754;DHT22;59593;51.716;7.016;2023-03-01T10:50:03;6.10;99.90
71754;DHT22;59593;51.716;7.016;2023-03-01T10:52:35;6.30;99.90
71754;DHT22;59593;51.716;7.016;2023-03-01T10:55:04;6.70;99.90
71754;DHT22;59593;51.716;7.016;2023-03-01T10:57:46;7.00;99.90
71754;DHT22;59593;51.716;7.016;2023-03-01T11:05:26;7.80;99.90
71754;DHT22;59593;51.716;7.016;2023-03-01T11:08:01;7.60;99.90
71754;DHT22;59593;51.716;7.016;2023-03-01T11:10:29;8.40;99.90
71754;DHT22;59593;51.716;7.016;2023-03-01T11:13:14;9.30;99.90
71754;DHT22;59593;51.716;7.016;2023-03-01T11:15:40;8.50;99.90
71754;DHT22;59593;51.716;7.016;2023-03-01T11:18:19;8.70;99.90
71754;DHT22;59593;51.716;7.016;2023-03-01T11:20:49;9.00;99.90
71754;DHT22;59593;51.716;7.016;2023-03-01T11:23:16;9.00;99.90
71754;DHT22;59593;51.716;7.016;2023-03-01T11:25:47;8.80;99.90
71754;DHT22;59593;51.716;7.016;2023-03-01T11:28:17;8.60;99.90
71754;DHT22;59593;51.716;7.016;2023-03-01T11:31:02;8.50;99.90
71754;DHT22;59593;51.716;7.016;2023-03-01T11:33:49;8.80;99.90
71754;DHT22;59593;51.716;7.016;2023-03-01T11:38:47;8.30;99.90
71754;DHT22;59593;51.716;7.016;2023-03-01T11:41:17;8.90;99.90
71754;DHT22;59593;51.716;7.016;2023-03-01T11:52:21;10.00;99.90
71754;DHT22;59593;51.716;7.016;2023-03-01T11:57:49;11.00;90.70
71754;DHT22;59593;51.716;7.016;2023-03-01T12:05:56;9.90;98.60
71754;DHT22;59593;51.716;7.016;2023-03-01T12:11:43;10.30;90.20
71754;DHT22;59593;51.716;7.016;2023-03-01T12:27:56;11.80;78.50
71754;DHT22;59593;51.716;7.016;2023-03-01T12:30:34;12.80;66.10
71754;DHT22;59593;51.716;7.016;2023-03-01T12:33:17;10.90;73.40
71754;DHT22;59593;51.716;7.016;2023-03-01T12:49:52;12.20;70.50
71754;DHT22;59593;51.716;7.016;2023-03-01T12:52:39;13.20;67.70
71754;DHT22;59593;51.716;7.016;2023-03-01T12:55:17;12.80;66.60
71754;DHT22;59593;51.716;7.016;2023-03-01T13:01:08;13.50;64.50
71754;DHT22;59593;51.716;7.016;2023-03-01T13:09:51;11.40;69.40
71754;DHT22;59593;51.716;7.016;2023-03-01T13:15:37;9.80;75.20
71754;DHT22;59593;51.716;7.016;2023-03-01T13:20:55;10.60;77.10
71754;DHT22;59593;51.716;7.016;2023-03-01T13:31:08;12.70;61.80
71754;DHT22;59593;51.716;7.016;2023-03-01T13:36:10;13.10;60.10
71754;DHT22;59593;51.716;7.016;2023-03-01T13:41:12;13.70;55.30
71754;DHT22;59593;51.716;7.016;2023-03-01T13:43:41;14.20;57.00
71754;DHT22;59593;51.716;7.016;2023-03-01T13:46:16;13.30;56.00
71754;DHT22;59593;51.716;7.016;2023-03-01T13:48:45;12.80;56.70
71754;DHT22;59593;51.716;7.016;2023-03-01T13:51:15;13.00;56.30
71754;DHT22;59593;51.716;7.016;2023-03-01T13:53:44;14.10;53.70
71754;DHT22;59593;51.716;7.016;2023-03-01T13:56:21;14.50;54.30
71754;DHT22;59593;51.716;7.016;2023-03-01T13:59:33;14.90;51.40
71754;DHT22;59593;51.716;7.016;2023-03-01T14:01:40;15.00;51.00
71754;DHT22;59593;51.716;7.016;2023-03-01T14:04:35;14.80;51.90
71754;DHT22;59593;51.716;7.016;2023-03-01T14:07:17;15.90;50.00
71754;DHT22;59593;51.716;7.016;2023-03-01T14:09:48;14.60;52.10
71754;DHT22;59593;51.716;7.016;2023-03-01T14:15:27;14.40;50.90
71754;DHT22;59593;51.716;7.016;2023-03-01T14:18:24;14.10;51.30
71754;DHT22;59593;51.716;7.016;2023-03-01T14:20:51;14.40;51.50
71754;DHT22;59593;51.716;7.016;2023-03-01T14:23:21;15.20;48.90
71754;DHT22;59593;51.716;7.016;2023-03-01T14:25:55;15.20;47.70
71754;DHT22;59593;51.716;7.016;2023-03-01T14:28:23;14.40;47.00
71754;DHT22;59593;51.716;7.016;2023-03-01T14:30:52;14.10;48.70
71754;DHT22;59593;51.716;7.016;2023-03-01T14:33:24;14.60;48.60
71754;DHT22;59593;51.716;7.016;2023-03-01T14:35:57;14.80;48.70
71754;DHT22;59593;51.716;7.016;2023-03-01T14:38:30;14.90;49.30
71754;DHT22;59593;51.716;7.016;2023-03-01T14:40:59;15.50;47.90
71754;DHT22;59593;51.716;7.016;2023-03-01T14:43:27;15.40;48.80
71754;DHT22;59593;51.716;7.016;2023-03-01T14:45:54;15.50;49.50
71754;DHT22;59593;51.716;7.016;2023-03-01T14:48:23;15.60;48.80
71754;DHT22;59593;51.716;7.016;2023-03-01T14:50:50;14.80;48.50
71754;DHT22;59593;51.716;7.016;2023-03-01T14:53:23;12.40;52.00
71754;DHT22;59593;51.716;7.016;2023-03-01T14:55:52;13.70;53.80
71754;DHT22;59593;51.716;7.016;2023-03-01T14:58:21;14.60;50.00
71754;DHT22;59593;51.716;7.016;2023-03-01T15:00:53;14.60;49.60
71754;DHT22;59593;51.716;7.016;2023-03-01T15:03:41;15.20;48.80
71754;DHT22;59593;51.716;7.016;2023-03-01T15:06:09;14.20;50.20
71754;DHT22;59593;51.716;7.016;2023-03-01T15:08:42;13.90;50.30
71754;DHT22;59593;51.716;7.016;2023-03-01T15:11:30;13.10;51.50
71754;DHT22;59593;51.716;7.016;2023-03-01T15:13:56;14.20;50.60
71754;DHT22;59593;51.716;7.016;2023-03-01T15:16:26;14.10;50.30
71754;DHT22;59593;51.716;7.016;2023-03-01T15:18:57;13.20;50.80
71754;DHT22;59593;51.716;7.016;2023-03-01T15:21:27;14.00;53.30
71754;DHT22;59593;51.716;7.016;2023-03-01T15:26:58;14.00;49.10
71754;DHT22;59593;51.716;7.016;2023-03-01T15:29:30;13.60;49.10
71754;DHT22;59593;51.716;7.016;2023-03-01T15:32:04;12.30;51.60
71754;DHT22;59593;51.716;7.016;2023-03-01T15:34:35;12.90;52.90
71754;DHT22;59593;51.716;7.016;2023-03-01T15:37:06;12.70;52.70
71754;DHT22;59593;51.716;7.016;2023-03-01T15:39:56;11.30;55.60
71754;DHT22;59593;51.716;7.016;2023-03-01T15:45:08;12.10;54.00
71754;DHT22;59593;51.716;7.016;2023-03-01T15:47:34;12.10;53.40
71754;DHT22;59593;51.716;7.016;2023-03-01T15:50:00;11.70;52.20
71754;DHT22;59593;51.716;7.016;2023-03-01T15:52:35;12.10;53.70
71754;DHT22;59593;51.716;7.016;2023-03-01T15:55:14;12.60;54.70
71754;DHT22;59593;51.716;7.016;2023-03-01T15:57:40;12.30;54.20
71754;DHT22;59593;51.716;7.016;2023-03-01T16:00:10;12.30;54.20
71754;DHT22;59593;51.716;7.016;2023-03-01T16:02:40;12.20;54.80
71754;DHT22;59593;51.716;7.016;2023-03-01T16:05:10;11.00;55.60
71754;DHT22;59593;51.716;7.016;2023-03-01T16:07:41;10.90;59.90
71754;DHT22;59593;51.716;7.016;2023-03-01T16:10:07;11.00;77.80
71754;DHT22;59593;51.716;7.016;2023-03-01T16:12:36;10.90;69.90
71754;DHT22;59593;51.716;7.016;2023-03-01T16:15:01;11.00;69.50
71754;DHT22;59593;51.716;7.016;2023-03-01T16:17:27;11.20;63.70
71754;DHT22;59593;51.716;7.016;2023-03-01T16:19:53;10.90;64.80
71754;DHT22;59593;51.716;7.016;2023-03-01T16:22:19;11.00;63.40
71754;DHT22;59593;51.716;7.016;2023-03-01T16:24:50;10.60;63.70
71754;DHT22;59593;51.716;7.016;2023-03-01T16:27:15;10.30;66.70
71754;DHT22;59593;51.716;7.016;2023-03-01T16:29:41;10.20;65.60
71754;DHT22;59593;51.716;7.016;2023-03-01T16:32:07;10.00;66.20
71754;DHT22;59593;51.716;7.016;2023-03-01T16:34:32;9.60;73.40
71754;DHT22;59593;51.716;7.016;2023-03-01T16:36:58;9.60;72.10
71754;DHT22;59593;51.716;7.016;2023-03-01T16:39:24;9.30;72.40
71754;DHT22;59593;51.716;7.016;2023-03-01T16:41:49;8.50;75.50
71754;DHT22;59593;51.716;7.016;2023-03-01T16:44:15;8.50;80.70
71754;DHT22;59593;51.716;7.016;2023-03-01T16:46:42;8.30;84.20
71754;DHT22;59593;51.716;7.016;2023-03-01T16:49:11;8.00;89.70
71754;DHT22;59593;51.716;7.016;2023-03-01T16:51:37;7.70;90.30
71754;DHT22;59593;51.716;7.016;2023-03-01T16:54:06;7.60;94.30
71754;DHT22;59593;51.716;7.016;2023-03-01T16:56:31;7.30;95.40
71754;DHT22;59593;51.716;7.016;2023-03-01T16:58:59;7.20;97.90
71754;DHT22;59593;51.716;7.016;2023-03-01T17:01:25;7.00;99.80
71754;DHT22;59593;51.716;7.016;2023-03-01T17:03:51;6.90;99.90
71754;DHT22;59593;51.716;7.016;2023-03-01T17:06:19;6.70;99.90
71754;DHT22;59593;51.716;7.016;2023-03-01T17:08:52;6.50;99.90
71754;DHT22;59593;51.716;7.016;2023-03-01T17:11:19;6.40;99.90
71754;DHT22;59593;51.716;7.016;2023-03-01T17:13:47;6.20;99.90
71754;DHT22;59593;51.716;7.016;2023-03-01T17:16:19;6.10;99.90
71754;DHT22;59593;51.716;7.016;2023-03-01T17:18:45;6.00;99.90
71754;DHT22;59593;51.716;7.016;2023-03-01T17:21:11;5.90;99.90
71754;DHT22;59593;51.716;7.016;2023-03-01T17:23:39;5.70;99.90
71754;DHT22;59593;51.716;7.016;2023-03-01T17:26:06;5.70;99.90
71754;DHT22;59593;51.716;7.016;2023-03-01T17:28:36;5.80;99.90
71754;DHT22;59593;51.716;7.016;2023-03-01T17:31:03;5.60;99.90
71754;DHT22;59593;51.716;7.016;2023-03-01T17:33:29;5.50;99.90
71754;DHT22;59593;51.716;7.016;2023-03-01T17:35:58;5.40;99.90
71754;DHT22;59593;51.716;7.016;2023-03-01T17:38:24;5.30;99.90
71754;DHT22;59593;51.716;7.016;2023-03-01T17:40:50;5.30;99.90
71754;DHT22;59593;51.716;7.016;2023-03-01T17:43:16;5.30;99.90
71754;DHT22;59593;51.716;7.016;2023-03-01T17:45:43;5.20;99.90
71754;DHT22;59593;51.716;7.016;2023-03-01T17:48:13;5.10;99.90
71754;DHT22;59593;51.716;7.016;2023-03-01T17:50:39;5.10;99.90
71754;DHT22;59593;51.716;7.016;2023-03-01T17:53:06;5.00;99.90
71754;DHT22;59593;51.716;7.016;2023-03-01T17:55:35;5.00;99.90